createdAt,value
2018-09-18T00:01:17.012Z,5.80
2018-09-18T00:03:44.575Z,5.27
2018-09-18T00:06:12.107Z,5.63
2018-09-18T00:08:39.661Z,5.20
2018-09-18T00:11:07.193Z,5.17
2018-09-18T00:13:35.518Z,5.93
2018-09-18T00:16:03.049Z,5.73
2018-09-18T00:18:30.588Z,5.23
2018-09-18T00:20:58.145Z,5.50
2018-09-18T00:23:25.682Z,5.60
2018-09-18T00:25:54.005Z,5.37
2018-09-18T00:28:21.534Z,6.40
2018-09-18T00:30:49.097Z,5.57
2018-09-18T00:33:17.585Z,5.30
2018-09-18T00:35:45.148Z,6.13
2018-09-18T00:38:12.677Z,6.00
2018-09-18T00:40:40.238Z,6.00
2018-09-18T00:43:07.797Z,5.43
2018-09-18T00:45:35.329Z,6.00
2018-09-18T00:48:03.865Z,6.27
2018-09-18T00:50:31.429Z,5.87
2018-09-18T00:52:58.970Z,6.70
2018-09-18T00:55:26.529Z,6.70
2018-09-18T00:57:54.062Z,5.70
2018-09-18T01:00:21.621Z,6.07
2018-09-18T01:02:49.162Z,5.80
2018-09-18T01:05:16.726Z,6.03
2018-09-18T01:07:44.254Z,5.90
2018-09-18T01:10:11.817Z,6.97
2018-09-18T01:12:39.376Z,6.73
2018-09-18T01:15:07.685Z,6.70
2018-09-18T01:17:35.241Z,6.70
2018-09-18T01:20:02.810Z,6.87
2018-09-18T01:22:30.349Z,7.17
2018-09-18T01:24:57.881Z,6.70
2018-09-18T01:27:26.210Z,7.10
2018-09-18T01:29:53.746Z,6.73
2018-09-18T01:32:21.318Z,5.87
2018-09-18T01:34:48.877Z,6.17
2018-09-18T01:37:18.388Z,6.80
2018-09-18T01:39:45.920Z,6.70
2018-09-18T01:42:13.483Z,6.43
2018-09-18T01:44:41.020Z,6.33
2018-09-18T01:47:10.541Z,6.20
2018-09-18T01:49:38.065Z,6.43
2018-09-18T01:52:05.625Z,6.97
2018-09-18T01:54:33.161Z,6.37
2018-09-18T01:57:00.721Z,6.70
2018-09-18T01:59:28.254Z,6.87
2018-09-18T02:01:55.813Z,7.07
2018-09-18T02:04:23.347Z,6.97
2018-09-18T02:06:50.913Z,6.67
2018-09-18T02:09:18.455Z,7.30
2018-09-18T02:11:45.995Z,7.07
2018-09-18T02:14:13.553Z,6.77
2018-09-18T02:16:41.086Z,7.00
2018-09-18T02:19:08.641Z,7.30
2018-09-18T02:21:37.137Z,7.83
2018-09-18T02:24:04.714Z,7.40
2018-09-18T02:26:32.261Z,7.57
2018-09-18T02:28:59.791Z,7.40
2018-09-18T02:31:27.356Z,7.50
2018-09-18T02:33:54.888Z,7.87
2018-09-18T02:36:22.449Z,7.60
2018-09-18T02:38:50.011Z,7.00
2018-09-18T02:41:17.546Z,7.33
2018-09-18T02:43:45.106Z,7.73
2018-09-18T02:46:12.669Z,8.03
2018-09-18T02:48:40.226Z,7.90
2018-09-18T02:51:07.762Z,8.30
2018-09-18T02:53:35.326Z,7.87
2018-09-18T02:56:02.898Z,7.40
2018-09-18T02:58:30.460Z,8.37
2018-09-18T03:00:58.983Z,7.73
2018-09-18T03:03:28.494Z,7.90
2018-09-18T03:05:56.029Z,8.13
2018-09-18T03:08:23.583Z,8.37
2018-09-18T03:10:52.841Z,8.37
2018-09-18T03:13:20.402Z,7.73
2018-09-18T03:15:47.972Z,8.10
2018-09-18T03:18:15.500Z,8.27
2018-09-18T03:20:43.063Z,7.77
2018-09-18T03:23:10.593Z,8.90
2018-09-18T03:25:38.154Z,8.03
2018-09-18T03:28:05.685Z,8.20
2018-09-18T03:30:34.014Z,8.90
2018-09-18T03:33:01.555Z,8.57
2018-09-18T03:35:29.112Z,8.37
2018-09-18T03:37:56.685Z,8.93
2018-09-18T03:40:25.157Z,7.87
2018-09-18T03:42:52.730Z,9.00
2018-09-18T03:45:20.265Z,8.83
2018-09-18T03:47:47.825Z,8.30
2018-09-18T03:50:15.368Z,8.97
2018-09-18T03:52:42.930Z,8.63
2018-09-18T03:55:11.386Z,9.70
2018-09-18T03:57:38.941Z,8.80
2018-09-18T04:00:06.514Z,9.60
2018-09-18T04:02:34.073Z,9.30
2018-09-18T04:05:01.631Z,8.23
2018-09-18T04:07:29.171Z,8.50
2018-09-18T04:09:56.728Z,8.63
2018-09-18T04:12:24.263Z,9.50
2018-09-18T04:14:51.829Z,9.07
2018-09-18T04:17:19.413Z,9.37
2018-09-18T04:19:46.985Z,9.53
2018-09-18T04:22:14.516Z,8.93
2018-09-18T04:24:44.031Z,8.53
2018-09-18T04:27:11.574Z,9.60
2018-09-18T04:29:39.137Z,8.57
2018-09-18T04:32:06.670Z,9.87
2018-09-18T04:34:34.237Z,9.67
2018-09-18T04:37:01.777Z,10.03
2018-09-18T04:39:30.085Z,9.20
2018-09-18T04:41:57.646Z,9.10
2018-09-18T04:44:25.186Z,9.63
2018-09-18T04:46:52.750Z,9.70
2018-09-18T04:49:20.286Z,9.43
2018-09-18T04:51:48.619Z,9.83
2018-09-18T04:54:16.159Z,9.43
2018-09-18T04:56:43.730Z,10.00
2018-09-18T04:59:11.301Z,10.20
2018-09-18T05:01:39.819Z,9.10
2018-09-18T05:04:07.381Z,9.53
2018-09-18T05:06:34.928Z,9.83
2018-09-18T05:09:02.474Z,10.77
2018-09-18T05:11:30.038Z,10.43
2018-09-18T05:13:57.598Z,10.10
2018-09-18T05:16:25.166Z,10.07
2018-09-18T05:18:54.722Z,10.77
2018-09-18T05:21:22.264Z,10.57
2018-09-18T05:23:49.820Z,10.30
2018-09-18T05:26:17.385Z,10.23
2018-09-18T05:28:44.962Z,10.60
2018-09-18T05:31:13.461Z,11.03
2018-09-18T05:33:41.053Z,10.10
2018-09-18T05:36:08.588Z,10.30
2018-09-18T05:38:36.149Z,10.40
2018-09-18T05:41:04.453Z,10.37
2018-09-18T05:43:31.994Z,9.30
2018-09-18T05:45:59.569Z,9.80
2018-09-18T05:48:28.075Z,10.80
2018-09-18T05:50:55.645Z,11.13
2018-09-18T05:53:23.177Z,11.70
2018-09-18T05:55:50.738Z,10.10
2018-09-18T05:58:18.276Z,10.10
2018-09-18T06:00:45.834Z,9.40
2018-09-18T06:03:13.401Z,10.70
2018-09-18T06:05:40.938Z,11.70
2018-09-18T06:08:10.482Z,12.30
2018-09-18T06:10:38.049Z,12.27
2018-09-18T06:13:06.554Z,11.87
2018-09-18T06:15:34.117Z,12.97
2018-09-18T06:18:02.417Z,13.30
2018-09-18T06:20:29.988Z,11.60
2018-09-18T06:22:57.554Z,11.30
2018-09-18T06:25:26.095Z,10.70
2018-09-18T06:27:53.639Z,11.17
2018-09-18T06:30:21.182Z,10.47
2018-09-18T06:32:48.741Z,10.23
2018-09-18T06:35:17.243Z,11.60
2018-09-18T06:37:44.813Z,10.70
2018-09-18T06:40:12.350Z,10.10
2018-09-18T06:42:40.685Z,10.50
2018-09-18T06:45:08.946Z,9.93
2018-09-18T06:47:36.486Z,9.50
2018-09-18T06:50:06.018Z,9.87
2018-09-18T06:52:33.589Z,9.10
2018-09-18T06:55:01.152Z,9.20
2018-09-18T06:57:28.694Z,8.50
2018-09-18T06:59:56.236Z,9.50
2018-09-18T07:02:23.802Z,10.00
2018-09-18T07:04:51.548Z,9.27
2018-09-18T07:07:21.041Z,10.40
2018-09-18T07:09:48.614Z,8.70
2018-09-18T07:12:16.157Z,10.00
2018-09-18T07:14:43.726Z,8.53
2018-09-18T07:17:11.300Z,7.77
2018-09-18T07:19:38.862Z,7.20
2018-09-18T07:22:06.410Z,7.70
2018-09-18T07:24:33.969Z,7.20
2018-09-18T07:27:01.520Z,7.33
2018-09-18T07:29:29.130Z,7.77
2018-09-18T07:31:56.650Z,7.37
2018-09-18T07:34:24.210Z,7.30
2018-09-18T07:36:51.755Z,7.17
2018-09-18T07:39:19.296Z,7.57
2018-09-18T07:41:46.874Z,7.10
2018-09-18T07:44:14.411Z,7.93
2018-09-18T07:46:41.973Z,7.53
2018-09-18T07:49:09.550Z,7.90
2018-09-18T07:51:37.095Z,7.77
2018-09-18T07:54:04.685Z,7.47
2018-09-18T07:56:32.255Z,7.10
2018-09-18T07:58:59.803Z,7.77
2018-09-18T08:01:29.078Z,7.87
2018-09-18T08:03:58.586Z,6.90
2018-09-18T08:06:26.131Z,7.37
2018-09-18T08:08:53.709Z,6.57
2018-09-18T08:11:21.279Z,6.90
2018-09-18T08:13:48.843Z,7.30
2018-09-18T08:16:17.154Z,7.10
2018-09-18T08:18:46.717Z,8.17
2018-09-18T08:21:16.184Z,7.00
2018-09-18T08:23:43.754Z,6.70
2018-09-18T08:26:11.308Z,6.50
2018-09-18T08:28:38.887Z,6.70
2018-09-18T08:31:06.457Z,6.93
2018-09-18T08:33:34.030Z,6.57
2018-09-18T08:36:01.578Z,6.77
2018-09-18T08:38:31.093Z,6.50
2018-09-18T08:40:58.655Z,6.77
2018-09-18T08:43:26.237Z,7.03
2018-09-18T08:45:53.819Z,6.60
2018-09-18T08:48:21.386Z,6.63
2018-09-18T08:50:48.921Z,7.70
2018-09-18T08:53:16.536Z,6.50
2018-09-18T08:55:44.118Z,6.43
2018-09-18T08:58:11.686Z,6.70
2018-09-18T09:00:39.243Z,6.97
2018-09-18T09:03:06.841Z,6.57
2018-09-18T09:05:35.149Z,6.83
2018-09-18T09:08:04.792Z,7.40
2018-09-18T09:10:32.329Z,6.50
2018-09-18T09:12:59.877Z,7.10
2018-09-18T09:15:28.452Z,7.10
2018-09-18T09:17:55.931Z,6.27
2018-09-18T09:20:23.519Z,6.60
2018-09-18T09:22:51.164Z,6.90
2018-09-18T09:25:19.650Z,6.93
2018-09-18T09:27:47.273Z,6.40
2018-09-18T09:30:16.530Z,6.70
2018-09-18T09:32:44.859Z,7.00
2018-09-18T09:35:12.451Z,6.80
2018-09-18T09:37:40.029Z,6.13
2018-09-18T09:40:09.538Z,6.40
2018-09-18T09:42:37.103Z,5.50
2018-09-18T09:45:04.759Z,5.83
2018-09-18T09:47:32.250Z,5.43
2018-09-18T09:49:59.814Z,5.13
2018-09-18T09:52:27.353Z,5.50
2018-09-18T09:54:56.870Z,5.57
2018-09-18T09:57:24.405Z,5.23
2018-09-18T09:59:51.970Z,4.70
2018-09-18T10:02:20.474Z,4.70
2018-09-18T10:04:48.987Z,4.90
2018-09-18T10:07:18.499Z,5.00
2018-09-18T10:09:46.041Z,5.30
2018-09-18T10:12:14.603Z,4.90
2018-09-18T10:14:42.195Z,5.23
2018-09-18T10:17:09.730Z,5.50
2018-09-18T10:19:37.254Z,4.90
2018-09-18T10:22:04.828Z,4.80
2018-09-18T10:24:32.406Z,4.93
2018-09-18T10:27:00.973Z,4.40
2018-09-18T10:29:28.491Z,4.50
2018-09-18T10:31:56.054Z,6.03
2018-09-18T10:34:23.615Z,4.40
2018-09-18T10:36:51.369Z,5.23
2018-09-18T10:39:18.922Z,4.27
2018-09-18T10:41:46.523Z,4.53
2018-09-18T10:44:14.045Z,4.53
2018-09-18T10:46:41.634Z,4.70
2018-09-18T10:49:09.173Z,4.60
2018-09-18T10:51:36.737Z,4.67
2018-09-18T10:54:04.306Z,4.63
2018-09-18T10:56:31.842Z,4.10
2018-09-18T10:58:59.402Z,4.33
2018-09-18T11:01:26.957Z,4.47
2018-09-18T11:03:54.495Z,4.70
2018-09-18T11:06:22.073Z,4.60
2018-09-18T11:08:49.670Z,4.23
2018-09-18T11:11:17.283Z,3.93
2018-09-18T11:13:45.584Z,3.97
2018-09-18T11:16:13.401Z,3.83
2018-09-18T11:18:40.898Z,4.40
2018-09-18T11:21:08.462Z,4.50
2018-09-18T11:23:36.035Z,4.20
2018-09-18T11:26:04.391Z,4.70
2018-09-18T11:28:33.899Z,4.47
2018-09-18T11:31:02.268Z,4.77
2018-09-18T11:33:29.815Z,4.13
2018-09-18T11:35:57.525Z,4.60
2018-09-18T11:38:25.056Z,4.60
2018-09-18T11:40:53.385Z,3.83
2018-09-18T11:43:20.917Z,4.80
2018-09-18T11:45:49.471Z,4.00
2018-09-18T11:48:17.018Z,4.60
2018-09-18T11:50:44.555Z,4.40
2018-09-18T11:53:12.119Z,4.23
2018-09-18T11:55:39.665Z,4.50
2018-09-18T11:58:09.661Z,4.10
2018-09-18T12:00:37.273Z,4.43
2018-09-18T12:03:04.872Z,4.23
2018-09-18T12:05:32.406Z,4.13
2018-09-18T12:07:59.937Z,5.60
2018-09-18T12:10:29.422Z,4.10
2018-09-18T12:12:56.953Z,4.73
2018-09-18T12:15:24.487Z,4.10
2018-09-18T12:17:52.046Z,4.00
2018-09-18T12:20:19.610Z,4.03
2018-09-18T12:22:47.223Z,3.97
2018-09-18T12:25:14.731Z,4.60
2018-09-18T12:27:42.332Z,4.20
2018-09-18T12:30:09.874Z,4.10
2018-09-18T12:32:37.414Z,4.27
2018-09-18T12:35:04.973Z,4.20
2018-09-18T12:37:32.513Z,4.00
2018-09-18T12:40:00.084Z,4.13
2018-09-18T12:42:27.767Z,3.83
2018-09-18T12:44:55.252Z,4.40
2018-09-18T12:47:23.588Z,4.00
2018-09-18T12:49:51.361Z,4.40
2018-09-18T12:52:19.474Z,4.10
2018-09-18T12:54:47.039Z,4.30
2018-09-18T12:57:14.795Z,3.90
2018-09-18T12:59:42.214Z,3.90
2018-09-18T13:02:09.787Z,4.60
2018-09-18T13:04:37.350Z,4.10
2018-09-18T13:07:04.920Z,4.47
2018-09-18T13:09:32.466Z,4.50
2018-09-18T13:12:00.063Z,3.73
2018-09-18T13:14:27.606Z,4.30
2018-09-18T13:16:57.155Z,3.87
2018-09-18T13:19:24.711Z,4.10
2018-09-18T13:21:52.287Z,3.73
2018-09-18T13:24:20.585Z,4.60
2018-09-18T13:26:48.113Z,4.40
2018-09-18T13:29:18.378Z,4.40
2018-09-18T13:31:45.933Z,3.80
2018-09-18T13:34:15.437Z,5.00
2018-09-18T13:36:42.970Z,4.73
2018-09-18T13:39:12.528Z,4.40
2018-09-18T13:41:40.083Z,4.10
2018-09-18T13:44:07.631Z,3.70
2018-09-18T13:46:35.278Z,4.13
2018-09-18T13:49:03.751Z,3.87
2018-09-18T13:51:31.303Z,4.10
2018-09-18T13:53:58.854Z,4.40
2018-09-18T13:56:26.532Z,4.13
2018-09-18T13:58:53.981Z,4.60
2018-09-18T14:01:28.357Z,4.27
2018-09-18T14:03:55.908Z,4.40
2018-09-18T14:06:24.208Z,3.97
2018-09-18T14:08:51.792Z,4.10
2018-09-18T14:11:19.416Z,4.10
2018-09-18T14:13:46.885Z,4.47
2018-09-18T14:16:14.449Z,4.70
2018-09-18T14:18:42.012Z,4.60
2018-09-18T14:21:09.541Z,4.40
2018-09-18T14:23:37.121Z,4.00
2018-09-18T14:26:04.689Z,4.20
2018-09-18T14:28:32.239Z,4.10
2018-09-18T14:31:00.746Z,4.30
2018-09-18T14:33:28.314Z,4.30
2018-09-18T14:35:55.862Z,4.80
2018-09-18T14:38:23.424Z,4.43
2018-09-18T14:40:50.987Z,5.47
2018-09-18T14:43:18.538Z,4.33
2018-09-18T14:45:46.119Z,4.30
2018-09-18T14:48:13.706Z,4.67
2018-09-18T14:50:43.364Z,4.50
2018-09-18T14:53:10.931Z,4.50
2018-09-18T14:55:38.494Z,4.03
2018-09-18T14:58:06.058Z,4.53
2018-09-18T15:00:34.394Z,4.70
2018-09-18T15:03:01.959Z,5.80
2018-09-18T15:05:29.495Z,5.60
2018-09-18T15:07:57.025Z,5.70
2018-09-18T15:10:24.610Z,5.60
2018-09-18T15:12:52.153Z,5.00
2018-09-18T15:15:20.697Z,5.40
2018-09-18T15:17:48.999Z,4.70
2018-09-18T15:20:16.572Z,4.77
2018-09-18T15:22:44.107Z,5.00
2018-09-18T15:25:11.648Z,4.43
2018-09-18T15:27:39.246Z,4.90
2018-09-18T15:30:06.812Z,5.27
2018-09-18T15:32:34.401Z,5.30
2018-09-18T15:35:04.708Z,5.00
2018-09-18T15:37:32.287Z,5.40
2018-09-18T15:39:59.917Z,4.57
2018-09-18T15:42:27.410Z,5.33
2018-09-18T15:44:54.962Z,5.33
2018-09-18T15:47:22.542Z,5.50
2018-09-18T15:49:50.087Z,5.30
2018-09-18T15:52:17.646Z,4.83
2018-09-18T15:54:45.960Z,6.60
2018-09-18T15:57:15.471Z,5.63
2018-09-18T15:59:43.011Z,5.40
2018-09-18T16:02:10.585Z,5.13
2018-09-18T16:04:38.134Z,5.37
2018-09-18T16:07:07.111Z,5.30
2018-09-18T16:09:34.748Z,5.30
2018-09-18T16:12:02.314Z,5.80
2018-09-18T16:14:29.977Z,6.17
2018-09-18T16:16:57.494Z,6.57
2018-09-18T16:19:26.792Z,5.77
2018-09-18T16:21:55.137Z,5.40
2018-09-18T16:24:22.681Z,5.60
2018-09-18T16:26:51.238Z,6.60
2018-09-18T16:29:18.855Z,6.33
2018-09-18T16:31:46.470Z,7.20
2018-09-18T16:34:14.979Z,7.23
2018-09-18T16:36:42.566Z,6.60
2018-09-18T16:39:10.113Z,7.30
2018-09-18T16:41:38.454Z,6.70
2018-09-18T16:44:06.031Z,7.30
2018-09-18T16:46:33.570Z,7.33
2018-09-18T16:49:01.137Z,7.00
2018-09-18T16:51:34.520Z,7.13
2018-09-18T16:54:02.073Z,6.93
2018-09-18T16:56:29.641Z,7.33
2018-09-18T16:58:57.214Z,7.67
2018-09-18T17:01:24.770Z,7.00
2018-09-18T17:03:52.346Z,8.03
2018-09-18T17:06:20.676Z,8.40
2018-09-18T17:08:48.250Z,8.43
2018-09-18T17:11:15.812Z,12.00
2018-09-18T17:13:43.406Z,8.30
2018-09-18T17:16:11.709Z,7.23
2018-09-18T17:18:39.304Z,7.70
2018-09-18T17:21:08.777Z,7.50
2018-09-18T17:23:36.316Z,7.97
2018-09-18T17:26:03.878Z,7.03
2018-09-18T17:28:31.559Z,9.13
2018-09-18T17:30:59.044Z,8.50
2018-09-18T17:33:26.630Z,8.20
2018-09-18T17:35:54.166Z,8.10
2018-09-18T17:38:22.501Z,7.70
2018-09-18T17:40:50.039Z,8.50
2018-09-18T17:43:19.525Z,7.70
2018-09-18T17:45:47.090Z,7.70
2018-09-18T17:48:14.667Z,8.83
2018-09-18T17:50:43.183Z,8.60
2018-09-18T17:53:10.721Z,8.20
2018-09-18T17:55:38.310Z,8.17
2018-09-18T17:58:05.926Z,11.57
2018-09-18T18:00:33.520Z,9.60
2018-09-18T18:03:01.060Z,11.17
2018-09-18T18:05:28.676Z,8.33
2018-09-18T18:07:56.209Z,8.47
2018-09-18T18:10:23.795Z,9.37
2018-09-18T18:12:51.359Z,12.23
2018-09-18T18:15:18.906Z,10.83
2018-09-18T18:17:46.453Z,11.43
2018-09-18T18:20:14.045Z,10.77
2018-09-18T18:22:41.594Z,8.80
2018-09-18T18:25:09.165Z,4.03
2018-09-18T18:27:36.711Z,6.00
2018-09-18T18:30:04.250Z,6.20
2018-09-18T18:32:31.814Z,6.50
2018-09-18T18:34:59.684Z,7.00
2018-09-18T18:37:27.271Z,6.20
2018-09-18T18:39:54.808Z,6.80
2018-09-18T18:42:22.382Z,6.57
2018-09-18T18:44:50.867Z,5.00
2018-09-18T18:47:18.409Z,4.80
2018-09-18T18:49:45.970Z,5.33
2018-09-18T18:52:13.528Z,5.20
2018-09-18T18:54:41.121Z,5.40
2018-09-18T18:57:09.435Z,5.80
2018-09-18T18:59:36.999Z,5.20
2018-09-18T19:02:04.570Z,6.07
2018-09-18T19:04:32.125Z,5.20
2018-09-18T19:06:59.709Z,5.30
2018-09-18T19:09:27.296Z,5.30
2018-09-18T19:11:54.843Z,4.80
2018-09-18T19:14:23.173Z,5.97
2018-09-18T19:16:50.702Z,5.40
2018-09-18T19:19:18.256Z,5.53
2018-09-18T19:21:45.801Z,4.83
2018-09-18T19:24:13.364Z,6.27
2018-09-18T19:26:40.900Z,6.60
2018-09-18T19:29:08.441Z,6.07
2018-09-18T19:31:36.005Z,5.90
2018-09-18T19:34:04.318Z,5.80
2018-09-18T19:36:31.878Z,6.00
2018-09-18T19:38:59.456Z,6.20
2018-09-18T19:41:26.993Z,5.83
2018-09-18T19:43:54.568Z,5.67
2018-09-18T19:46:22.116Z,5.83
2018-09-18T19:48:49.681Z,5.97
2018-09-18T19:51:17.253Z,5.90
2018-09-18T19:53:44.823Z,5.30
2018-09-18T19:56:12.370Z,5.73
2018-09-18T19:58:39.910Z,5.97
2018-09-18T20:01:07.475Z,5.53
2018-09-18T20:03:35.014Z,5.70
2018-09-18T20:06:04.532Z,6.83
2018-09-18T20:08:32.065Z,6.00
2018-09-18T20:10:59.945Z,14.33
2018-09-18T20:13:27.563Z,6.00
2018-09-18T20:15:55.159Z,6.50
2018-09-18T20:18:22.704Z,7.00
2018-09-18T20:20:50.347Z,6.43
2018-09-18T20:23:17.865Z,6.10
2018-09-18T20:25:45.409Z,6.17
2018-09-18T20:28:14.916Z,6.17
2018-09-18T20:30:42.478Z,5.57
2018-09-18T20:33:10.015Z,5.40
2018-09-18T20:35:37.610Z,5.57
2018-09-18T20:38:05.169Z,6.40
2018-09-18T20:40:33.642Z,5.70
2018-09-18T20:43:01.205Z,5.40
2018-09-18T20:45:28.791Z,6.30
2018-09-18T20:47:56.342Z,6.47
2018-09-18T20:50:23.896Z,6.50
2018-09-18T20:52:51.473Z,6.90
2018-09-18T20:55:19.028Z,5.70
2018-09-18T20:57:46.585Z,6.17
2018-09-18T21:00:15.072Z,6.20
2018-09-18T21:02:42.658Z,5.90
2018-09-18T21:05:11.183Z,6.77
2018-09-18T21:07:38.725Z,5.97
2018-09-18T21:10:07.063Z,5.67
2018-09-18T21:12:34.629Z,5.40
2018-09-18T21:15:02.191Z,5.50
2018-09-18T21:17:29.729Z,5.90
2018-09-18T21:19:57.289Z,5.30
2018-09-18T21:22:24.850Z,4.90
2018-09-18T21:24:52.434Z,5.17
2018-09-18T21:27:20.936Z,5.90
2018-09-18T21:29:48.469Z,5.53
2018-09-18T21:32:16.032Z,5.10
2018-09-18T21:34:44.338Z,4.80
2018-09-18T21:37:11.916Z,5.20
2018-09-18T21:39:39.479Z,5.27
2018-09-18T21:42:07.008Z,4.83
2018-09-18T21:44:34.565Z,4.50
2018-09-18T21:47:02.131Z,5.30
2018-09-18T21:49:29.688Z,4.80
2018-09-18T21:51:57.311Z,6.30
2018-09-18T21:54:24.893Z,5.13
2018-09-18T21:56:52.429Z,5.18
2018-09-18T21:59:20.737Z,7.30
2018-09-18T22:01:48.293Z,5.57
2018-09-18T22:04:15.825Z,5.03
2018-09-18T22:06:43.430Z,5.30
2018-09-18T22:09:10.997Z,5.33
2018-09-18T22:11:38.557Z,5.13
2018-09-18T22:14:06.126Z,5.10
2018-09-18T22:16:33.657Z,5.73
2018-09-18T22:19:01.279Z,4.60
2018-09-18T22:21:28.821Z,5.23
2018-09-18T22:23:57.146Z,5.40
2018-09-18T22:26:24.685Z,5.37
2018-09-18T22:28:52.241Z,4.80
2018-09-18T22:31:19.811Z,6.10
2018-09-18T22:33:47.349Z,5.10
2018-09-18T22:36:14.910Z,4.07
2018-09-18T22:38:42.452Z,4.77
2018-09-18T22:41:10.016Z,4.40
2018-09-18T22:43:37.560Z,4.57
2018-09-18T22:46:05.098Z,4.90
2018-09-18T22:48:34.599Z,4.70
2018-09-18T22:51:02.137Z,4.60
2018-09-18T22:53:29.694Z,5.37
2018-09-18T22:55:57.237Z,6.30
2018-09-18T22:58:24.804Z,6.30
2018-09-18T23:00:52.344Z,5.57
2018-09-18T23:03:19.917Z,4.90
2018-09-18T23:05:47.480Z,4.80
2018-09-18T23:08:15.044Z,4.40
2018-09-18T23:10:42.574Z,5.30
2018-09-18T23:13:10.132Z,5.03
2018-09-18T23:15:37.697Z,5.27
2018-09-18T23:18:05.326Z,5.20
2018-09-18T23:20:32.828Z,4.97
2018-09-18T23:23:00.413Z,4.70
2018-09-18T23:25:29.674Z,5.43
2018-09-18T23:27:58.231Z,4.70
2018-09-18T23:30:25.757Z,4.53
2018-09-18T23:32:53.294Z,5.27
2018-09-18T23:35:21.652Z,5.00
2018-09-18T23:37:49.174Z,4.40
2018-09-18T23:40:16.734Z,4.70
2018-09-18T23:42:44.265Z,4.87
2018-09-18T23:45:13.779Z,4.60
2018-09-18T23:47:41.312Z,4.80
2018-09-18T23:50:09.240Z,4.60
2018-09-18T23:52:36.782Z,4.47
2018-09-18T23:55:04.346Z,5.00
2018-09-18T23:57:31.912Z,5.10
2018-09-18T23:59:59.453Z,4.90
